sensor_id;sensor_type;location;lat;lon;timestamp;P1;durP1;ratioP1;P2;durP2;ratioP2
76593;SDS011;65482;50.240;14.302;2024-02-21T00:01:39;13.43;;;2.90;;
76593;SDS011;65482;50.240;14.302;2024-02-21T00:04:05;12.15;;;3.70;;
76593;SDS011;65482;50.240;14.302;2024-02-21T00:06:31;10.05;;;3.10;;
76593;SDS011;65482;50.240;14.302;2024-02-21T00:08:57;10.85;;;3.20;;
76593;SDS011;65482;50.240;14.302;2024-02-21T00:11:23;10.32;;;2.90;;
76593;SDS011;65482;50.240;14.302;2024-02-21T00:13:49;9.88;;;3.55;;
76593;SDS011;65482;50.240;14.302;2024-02-21T00:16:16;11.43;;;3.28;;
76593;SDS011;65482;50.240;14.302;2024-02-21T00:18:42;19.20;;;3.78;;
76593;SDS011;65482;50.240;14.302;2024-02-21T00:21:08;10.10;;;2.83;;
76593;SDS011;65482;50.240;14.302;2024-02-21T00:23:34;14.63;;;3.75;;
76593;SDS011;65482;50.240;14.302;2024-02-21T00:25:59;8.48;;;2.95;;
76593;SDS011;65482;50.240;14.302;2024-02-21T00:28:25;12.90;;;3.30;;
76593;SDS011;65482;50.240;14.302;2024-02-21T00:30:50;12.32;;;2.97;;
76593;SDS011;65482;50.240;14.302;2024-02-21T00:33:18;7.35;;;2.55;;
76593;SDS011;65482;50.240;14.302;2024-02-21T00:35:44;11.50;;;3.00;;
76593;SDS011;65482;50.240;14.302;2024-02-21T00:38:10;7.05;;;3.20;;
76593;SDS011;65482;50.240;14.302;2024-02-21T00:40:36;9.68;;;3.53;;
76593;SDS011;65482;50.240;14.302;2024-02-21T00:43:02;9.70;;;2.85;;
76593;SDS011;65482;50.240;14.302;2024-02-21T00:45:28;9.95;;;3.05;;
76593;SDS011;65482;50.240;14.302;2024-02-21T00:47:53;7.63;;;3.38;;
76593;SDS011;65482;50.240;14.302;2024-02-21T00:50:19;14.18;;;3.55;;
76593;SDS011;65482;50.240;14.302;2024-02-21T00:52:44;11.43;;;3.33;;
76593;SDS011;65482;50.240;14.302;2024-02-21T00:55:10;9.07;;;3.03;;
76593;SDS011;65482;50.240;14.302;2024-02-21T00:57:36;11.73;;;3.30;;
76593;SDS011;65482;50.240;14.302;2024-02-21T01:00:04;13.27;;;3.45;;
76593;SDS011;65482;50.240;14.302;2024-02-21T01:02:30;12.48;;;3.25;;
76593;SDS011;65482;50.240;14.302;2024-02-21T01:04:59;13.35;;;2.95;;
76593;SDS011;65482;50.240;14.302;2024-02-21T01:07:26;12.23;;;3.33;;
76593;SDS011;65482;50.240;14.302;2024-02-21T01:09:51;17.55;;;3.60;;
76593;SDS011;65482;50.240;14.302;2024-02-21T01:12:18;10.55;;;3.33;;
76593;SDS011;65482;50.240;14.302;2024-02-21T01:14:44;9.35;;;3.45;;
76593;SDS011;65482;50.240;14.302;2024-02-21T01:17:13;9.48;;;3.67;;
76593;SDS011;65482;50.240;14.302;2024-02-21T01:19:39;13.60;;;4.05;;
76593;SDS011;65482;50.240;14.302;2024-02-21T01:22:05;11.57;;;3.53;;
76593;SDS011;65482;50.240;14.302;2024-02-21T01:24:30;9.73;;;3.30;;
76593;SDS011;65482;50.240;14.302;2024-02-21T01:26:56;11.55;;;3.00;;
76593;SDS011;65482;50.240;14.302;2024-02-21T01:29:22;12.75;;;3.08;;
76593;SDS011;65482;50.240;14.302;2024-02-21T01:31:47;7.25;;;2.55;;
76593;SDS011;65482;50.240;14.302;2024-02-21T01:34:13;8.35;;;3.20;;
76593;SDS011;65482;50.240;14.302;2024-02-21T01:36:39;8.48;;;2.72;;
76593;SDS011;65482;50.240;14.302;2024-02-21T01:39:04;8.30;;;3.28;;
76593;SDS011;65482;50.240;14.302;2024-02-21T01:41:31;10.48;;;2.92;;
76593;SDS011;65482;50.240;14.302;2024-02-21T01:43:56;8.32;;;3.30;;
76593;SDS011;65482;50.240;14.302;2024-02-21T01:46:23;11.30;;;3.38;;
76593;SDS011;65482;50.240;14.302;2024-02-21T01:48:53;10.50;;;3.80;;
76593;SDS011;65482;50.240;14.302;2024-02-21T01:51:20;11.70;;;3.42;;
76593;SDS011;65482;50.240;14.302;2024-02-21T01:53:45;14.82;;;3.40;;
76593;SDS011;65482;50.240;14.302;2024-02-21T01:56:12;10.00;;;3.20;;
76593;SDS011;65482;50.240;14.302;2024-02-21T01:58:38;9.38;;;3.65;;
76593;SDS011;65482;50.240;14.302;2024-02-21T02:01:06;12.43;;;3.63;;
76593;SDS011;65482;50.240;14.302;2024-02-21T02:03:31;9.93;;;3.38;;
76593;SDS011;65482;50.240;14.302;2024-02-21T02:05:57;14.20;;;3.70;;
76593;SDS011;65482;50.240;14.302;2024-02-21T02:08:22;12.93;;;3.85;;
76593;SDS011;65482;50.240;14.302;2024-02-21T02:10:49;11.93;;;3.60;;
76593;SDS011;65482;50.240;14.302;2024-02-21T02:13:14;11.45;;;3.75;;
76593;SDS011;65482;50.240;14.302;2024-02-21T02:15:44;11.20;;;3.65;;
76593;SDS011;65482;50.240;14.302;2024-02-21T02:18:10;15.30;;;4.00;;
76593;SDS011;65482;50.240;14.302;2024-02-21T02:20:37;10.65;;;3.70;;
76593;SDS011;65482;50.240;14.302;2024-02-21T02:23:18;9.05;;;3.35;;
76593;SDS011;65482;50.240;14.302;2024-02-21T02:25:59;6.07;;;2.90;;
76593;SDS011;65482;50.240;14.302;2024-02-21T02:28:26;8.43;;;2.90;;
76593;SDS011;65482;50.240;14.302;2024-02-21T02:30:52;7.93;;;2.72;;
76593;SDS011;65482;50.240;14.302;2024-02-21T02:33:18;14.38;;;3.10;;
76593;SDS011;65482;50.240;14.302;2024-02-21T02:35:44;11.75;;;3.00;;
76593;SDS011;65482;50.240;14.302;2024-02-21T02:38:09;14.55;;;2.95;;
76593;SDS011;65482;50.240;14.302;2024-02-21T02:40:37;7.95;;;2.75;;
76593;SDS011;65482;50.240;14.302;2024-02-21T02:43:03;10.00;;;3.25;;
76593;SDS011;65482;50.240;14.302;2024-02-21T02:45:29;16.05;;;3.35;;
76593;SDS011;65482;50.240;14.302;2024-02-21T02:47:55;8.65;;;2.90;;
76593;SDS011;65482;50.240;14.302;2024-02-21T02:50:22;8.43;;;2.60;;
76593;SDS011;65482;50.240;14.302;2024-02-21T02:52:48;10.48;;;3.05;;
76593;SDS011;65482;50.240;14.302;2024-02-21T02:55:14;9.63;;;2.85;;
76593;SDS011;65482;50.240;14.302;2024-02-21T02:57:39;11.13;;;3.03;;
76593;SDS011;65482;50.240;14.302;2024-02-21T03:00:07;12.00;;;2.80;;
76593;SDS011;65482;50.240;14.302;2024-02-21T03:02:37;12.77;;;3.13;;
76593;SDS011;65482;50.240;14.302;2024-02-21T03:05:11;12.32;;;3.25;;
76593;SDS011;65482;50.240;14.302;2024-02-21T03:07:43;9.52;;;3.15;;
76593;SDS011;65482;50.240;14.302;2024-02-21T03:10:10;12.98;;;2.90;;
76593;SDS011;65482;50.240;14.302;2024-02-21T03:12:35;11.27;;;3.50;;
76593;SDS011;65482;50.240;14.302;2024-02-21T03:15:01;12.52;;;3.05;;
76593;SDS011;65482;50.240;14.302;2024-02-21T03:17:27;8.75;;;2.90;;
76593;SDS011;65482;50.240;14.302;2024-02-21T03:19:53;11.18;;;3.30;;
76593;SDS011;65482;50.240;14.302;2024-02-21T03:22:20;12.90;;;3.42;;
76593;SDS011;65482;50.240;14.302;2024-02-21T03:24:46;11.70;;;3.05;;
76593;SDS011;65482;50.240;14.302;2024-02-21T03:27:12;11.35;;;3.13;;
76593;SDS011;65482;50.240;14.302;2024-02-21T03:29:38;12.57;;;3.60;;
76593;SDS011;65482;50.240;14.302;2024-02-21T03:32:03;10.23;;;3.03;;
76593;SDS011;65482;50.240;14.302;2024-02-21T03:34:29;10.15;;;3.05;;
76593;SDS011;65482;50.240;14.302;2024-02-21T03:36:54;7.80;;;3.10;;
76593;SDS011;65482;50.240;14.302;2024-02-21T03:39:20;10.65;;;3.63;;
76593;SDS011;65482;50.240;14.302;2024-02-21T03:41:46;12.38;;;2.92;;
76593;SDS011;65482;50.240;14.302;2024-02-21T03:44:12;9.52;;;2.72;;
76593;SDS011;65482;50.240;14.302;2024-02-21T03:46:37;10.80;;;2.72;;
76593;SDS011;65482;50.240;14.302;2024-02-21T03:49:03;10.70;;;3.58;;
76593;SDS011;65482;50.240;14.302;2024-02-21T03:51:28;10.18;;;2.78;;
76593;SDS011;65482;50.240;14.302;2024-02-21T03:53:54;8.38;;;2.88;;
76593;SDS011;65482;50.240;14.302;2024-02-21T03:56:20;10.07;;;3.35;;
76593;SDS011;65482;50.240;14.302;2024-02-21T03:58:45;7.93;;;2.90;;
76593;SDS011;65482;50.240;14.302;2024-02-21T04:01:11;8.02;;;3.10;;
76593;SDS011;65482;50.240;14.302;2024-02-21T04:03:37;12.63;;;2.80;;
76593;SDS011;65482;50.240;14.302;2024-02-21T04:06:03;8.85;;;3.42;;
76593;SDS011;65482;50.240;14.302;2024-02-21T04:08:29;11.40;;;3.40;;
76593;SDS011;65482;50.240;14.302;2024-02-21T04:10:54;11.32;;;3.15;;
76593;SDS011;65482;50.240;14.302;2024-02-21T04:13:21;9.07;;;3.20;;
76593;SDS011;65482;50.240;14.302;2024-02-21T04:15:48;9.90;;;3.35;;
76593;SDS011;65482;50.240;14.302;2024-02-21T04:18:14;10.95;;;3.20;;
76593;SDS011;65482;50.240;14.302;2024-02-21T04:20:40;12.65;;;3.38;;
76593;SDS011;65482;50.240;14.302;2024-02-21T04:23:06;11.82;;;3.25;;
76593;SDS011;65482;50.240;14.302;2024-02-21T04:25:31;11.75;;;3.80;;
76593;SDS011;65482;50.240;14.302;2024-02-21T04:27:57;14.10;;;3.78;;
76593;SDS011;65482;50.240;14.302;2024-02-21T04:30:22;11.77;;;3.28;;
76593;SDS011;65482;50.240;14.302;2024-02-21T04:32:48;14.55;;;3.90;;
76593;SDS011;65482;50.240;14.302;2024-02-21T04:35:13;6.82;;;3.33;;
76593;SDS011;65482;50.240;14.302;2024-02-21T04:37:39;11.48;;;3.78;;
76593;SDS011;65482;50.240;14.302;2024-02-21T04:40:05;14.40;;;3.65;;
76593;SDS011;65482;50.240;14.302;2024-02-21T04:42:31;17.48;;;9.73;;
76593;SDS011;65482;50.240;14.302;2024-02-21T04:44:57;15.98;;;5.35;;
76593;SDS011;65482;50.240;14.302;2024-02-21T04:47:22;8.75;;;4.43;;
76593;SDS011;65482;50.240;14.302;2024-02-21T04:49:51;7.72;;;3.53;;
76593;SDS011;65482;50.240;14.302;2024-02-21T04:52:17;11.55;;;3.88;;
76593;SDS011;65482;50.240;14.302;2024-02-21T04:54:42;8.32;;;3.20;;
76593;SDS011;65482;50.240;14.302;2024-02-21T04:57:08;11.38;;;3.70;;
76593;SDS011;65482;50.240;14.302;2024-02-21T04:59:35;11.68;;;3.35;;
76593;SDS011;65482;50.240;14.302;2024-02-21T05:02:01;12.80;;;3.80;;
76593;SDS011;65482;50.240;14.302;2024-02-21T05:04:27;11.23;;;3.50;;
76593;SDS011;65482;50.240;14.302;2024-02-21T05:06:53;15.35;;;4.07;;
76593;SDS011;65482;50.240;14.302;2024-02-21T05:09:19;10.77;;;3.85;;
76593;SDS011;65482;50.240;14.302;2024-02-21T05:11:45;9.25;;;3.75;;
76593;SDS011;65482;50.240;14.302;2024-02-21T05:14:11;6.85;;;3.15;;
76593;SDS011;65482;50.240;14.302;2024-02-21T05:16:38;11.73;;;3.92;;
76593;SDS011;65482;50.240;14.302;2024-02-21T05:19:03;10.27;;;3.15;;
76593;SDS011;65482;50.240;14.302;2024-02-21T05:21:29;13.55;;;3.42;;
76593;SDS011;65482;50.240;14.302;2024-02-21T05:23:55;9.35;;;3.83;;
76593;SDS011;65482;50.240;14.302;2024-02-21T05:26:24;9.07;;;3.85;;
76593;SDS011;65482;50.240;14.302;2024-02-21T05:28:50;9.88;;;3.45;;
76593;SDS011;65482;50.240;14.302;2024-02-21T05:31:19;15.80;;;3.72;;
76593;SDS011;65482;50.240;14.302;2024-02-21T05:33:46;14.27;;;4.13;;
76593;SDS011;65482;50.240;14.302;2024-02-21T05:36:13;8.77;;;3.53;;
76593;SDS011;65482;50.240;14.302;2024-02-21T05:38:39;14.90;;;4.90;;
76593;SDS011;65482;50.240;14.302;2024-02-21T05:41:05;9.85;;;3.53;;
76593;SDS011;65482;50.240;14.302;2024-02-21T05:43:30;17.85;;;4.18;;
76593;SDS011;65482;50.240;14.302;2024-02-21T05:45:56;14.20;;;3.58;;
76593;SDS011;65482;50.240;14.302;2024-02-21T05:48:22;11.00;;;3.60;;
76593;SDS011;65482;50.240;14.302;2024-02-21T05:50:48;13.07;;;4.30;;
76593;SDS011;65482;50.240;14.302;2024-02-21T05:53:14;9.38;;;3.65;;
76593;SDS011;65482;50.240;14.302;2024-02-21T05:55:40;14.25;;;3.72;;
76593;SDS011;65482;50.240;14.302;2024-02-21T05:58:05;14.70;;;3.92;;
76593;SDS011;65482;50.240;14.302;2024-02-21T06:00:31;14.55;;;4.18;;
76593;SDS011;65482;50.240;14.302;2024-02-21T06:02:57;9.75;;;4.50;;
76593;SDS011;65482;50.240;14.302;2024-02-21T06:05:23;9.38;;;4.22;;
76593;SDS011;65482;50.240;14.302;2024-02-21T06:07:49;15.20;;;4.40;;
76593;SDS011;65482;50.240;14.302;2024-02-21T06:10:16;12.18;;;3.92;;
76593;SDS011;65482;50.240;14.302;2024-02-21T06:12:41;10.43;;;3.70;;
76593;SDS011;65482;50.240;14.302;2024-02-21T06:15:07;11.20;;;3.75;;
76593;SDS011;65482;50.240;14.302;2024-02-21T06:17:33;9.55;;;3.38;;
76593;SDS011;65482;50.240;14.302;2024-02-21T06:19:59;9.10;;;3.83;;
76593;SDS011;65482;50.240;14.302;2024-02-21T06:22:24;12.23;;;4.10;;
76593;SDS011;65482;50.240;14.302;2024-02-21T06:24:50;11.13;;;3.95;;
76593;SDS011;65482;50.240;14.302;2024-02-21T06:27:15;12.52;;;4.25;;
76593;SDS011;65482;50.240;14.302;2024-02-21T06:29:41;7.75;;;3.60;;
76593;SDS011;65482;50.240;14.302;2024-02-21T06:32:07;13.50;;;4.20;;
76593;SDS011;65482;50.240;14.302;2024-02-21T06:34:33;11.65;;;4.28;;
76593;SDS011;65482;50.240;14.302;2024-02-21T06:36:58;11.25;;;4.05;;
76593;SDS011;65482;50.240;14.302;2024-02-21T06:39:24;10.25;;;4.43;;
76593;SDS011;65482;50.240;14.302;2024-02-21T06:41:50;12.68;;;4.00;;
76593;SDS011;65482;50.240;14.302;2024-02-21T06:44:16;14.07;;;3.85;;
76593;SDS011;65482;50.240;14.302;2024-02-21T06:46:42;9.07;;;4.43;;
76593;SDS011;65482;50.240;14.302;2024-02-21T06:49:08;13.00;;;3.63;;
76593;SDS011;65482;50.240;14.302;2024-02-21T06:51:33;8.90;;;3.83;;
76593;SDS011;65482;50.240;14.302;2024-02-21T06:54:00;11.95;;;3.90;;
76593;SDS011;65482;50.240;14.302;2024-02-21T06:56:26;11.15;;;3.40;;
76593;SDS011;65482;50.240;14.302;2024-02-21T06:58:54;12.55;;;4.22;;
76593;SDS011;65482;50.240;14.302;2024-02-21T07:01:20;10.38;;;3.45;;
76593;SDS011;65482;50.240;14.302;2024-02-21T07:03:46;13.75;;;3.95;;
76593;SDS011;65482;50.240;14.302;2024-02-21T07:06:12;11.20;;;3.47;;
76593;SDS011;65482;50.240;14.302;2024-02-21T07:08:38;8.88;;;3.13;;
76593;SDS011;65482;50.240;14.302;2024-02-21T07:11:04;14.13;;;4.22;;
76593;SDS011;65482;50.240;14.302;2024-02-21T07:13:30;9.68;;;3.92;;
76593;SDS011;65482;50.240;14.302;2024-02-21T07:15:55;11.75;;;4.28;;
76593;SDS011;65482;50.240;14.302;2024-02-21T07:18:21;15.93;;;4.40;;
76593;SDS011;65482;50.240;14.302;2024-02-21T07:20:46;14.10;;;4.72;;
76593;SDS011;65482;50.240;14.302;2024-02-21T07:23:12;9.93;;;3.75;;
76593;SDS011;65482;50.240;14.302;2024-02-21T07:25:38;9.70;;;3.53;;
76593;SDS011;65482;50.240;14.302;2024-02-21T07:28:05;11.90;;;3.88;;
76593;SDS011;65482;50.240;14.302;2024-02-21T07:30:31;16.00;;;4.45;;
76593;SDS011;65482;50.240;14.302;2024-02-21T07:32:57;11.68;;;4.30;;
76593;SDS011;65482;50.240;14.302;2024-02-21T07:35:22;15.73;;;4.60;;
76593;SDS011;65482;50.240;14.302;2024-02-21T07:37:48;12.82;;;4.60;;
76593;SDS011;65482;50.240;14.302;2024-02-21T07:40:14;10.48;;;4.57;;
76593;SDS011;65482;50.240;14.302;2024-02-21T07:42:41;12.77;;;3.95;;
76593;SDS011;65482;50.240;14.302;2024-02-21T07:45:07;12.90;;;4.45;;
76593;SDS011;65482;50.240;14.302;2024-02-21T07:47:33;12.32;;;3.78;;
76593;SDS011;65482;50.240;14.302;2024-02-21T07:49:58;14.45;;;4.20;;
76593;SDS011;65482;50.240;14.302;2024-02-21T07:52:24;9.90;;;3.53;;
76593;SDS011;65482;50.240;14.302;2024-02-21T07:54:50;10.45;;;4.20;;
76593;SDS011;65482;50.240;14.302;2024-02-21T07:57:16;16.63;;;3.30;;
76593;SDS011;65482;50.240;14.302;2024-02-21T07:59:41;9.35;;;3.50;;
76593;SDS011;65482;50.240;14.302;2024-02-21T08:02:07;12.30;;;4.07;;
76593;SDS011;65482;50.240;14.302;2024-02-21T08:04:33;8.68;;;3.30;;
76593;SDS011;65482;50.240;14.302;2024-02-21T08:06:59;10.82;;;3.70;;
76593;SDS011;65482;50.240;14.302;2024-02-21T08:09:28;11.15;;;3.75;;
76593;SDS011;65482;50.240;14.302;2024-02-21T08:11:54;12.52;;;3.53;;
76593;SDS011;65482;50.240;14.302;2024-02-21T08:14:20;10.77;;;3.70;;
76593;SDS011;65482;50.240;14.302;2024-02-21T08:16:46;8.90;;;3.42;;
76593;SDS011;65482;50.240;14.302;2024-02-21T08:19:12;9.85;;;3.60;;
76593;SDS011;65482;50.240;14.302;2024-02-21T08:21:38;9.32;;;3.70;;
76593;SDS011;65482;50.240;14.302;2024-02-21T08:24:03;10.57;;;3.78;;
76593;SDS011;65482;50.240;14.302;2024-02-21T08:26:29;6.70;;;3.65;;
76593;SDS011;65482;50.240;14.302;2024-02-21T08:28:56;11.75;;;3.67;;
76593;SDS011;65482;50.240;14.302;2024-02-21T08:31:25;10.90;;;3.75;;
76593;SDS011;65482;50.240;14.302;2024-02-21T08:33:59;12.25;;;3.42;;
76593;SDS011;65482;50.240;14.302;2024-02-21T08:36:29;11.93;;;3.63;;
76593;SDS011;65482;50.240;14.302;2024-02-21T08:38:56;12.38;;;3.75;;
76593;SDS011;65482;50.240;14.302;2024-02-21T08:41:25;11.57;;;3.58;;
76593;SDS011;65482;50.240;14.302;2024-02-21T08:43:51;10.27;;;3.90;;
76593;SDS011;65482;50.240;14.302;2024-02-21T08:46:22;13.38;;;4.18;;
76593;SDS011;65482;50.240;14.302;2024-02-21T08:48:49;8.02;;;3.70;;
76593;SDS011;65482;50.240;14.302;2024-02-21T08:51:16;13.80;;;4.38;;
76593;SDS011;65482;50.240;14.302;2024-02-21T08:53:43;15.05;;;4.30;;
76593;SDS011;65482;50.240;14.302;2024-02-21T08:56:09;9.23;;;4.10;;
76593;SDS011;65482;50.240;14.302;2024-02-21T08:58:38;11.73;;;4.22;;
76593;SDS011;65482;50.240;14.302;2024-02-21T09:01:05;14.32;;;4.38;;
76593;SDS011;65482;50.240;14.302;2024-02-21T09:03:32;12.02;;;4.57;;
76593;SDS011;65482;50.240;14.302;2024-02-21T09:05:58;13.55;;;4.65;;
76593;SDS011;65482;50.240;14.302;2024-02-21T09:08:25;9.65;;;3.90;;
76593;SDS011;65482;50.240;14.302;2024-02-21T09:10:51;11.90;;;4.38;;
76593;SDS011;65482;50.240;14.302;2024-02-21T09:13:16;11.65;;;4.28;;
76593;SDS011;65482;50.240;14.302;2024-02-21T09:15:42;9.23;;;3.70;;
76593;SDS011;65482;50.240;14.302;2024-02-21T09:18:08;16.90;;;4.40;;
76593;SDS011;65482;50.240;14.302;2024-02-21T09:20:34;11.15;;;4.40;;
76593;SDS011;65482;50.240;14.302;2024-02-21T09:22:59;9.18;;;3.53;;
76593;SDS011;65482;50.240;14.302;2024-02-21T09:25:25;12.48;;;3.80;;
76593;SDS011;65482;50.240;14.302;2024-02-21T09:27:51;11.65;;;4.35;;
76593;SDS011;65482;50.240;14.302;2024-02-21T09:30:19;11.55;;;4.10;;
76593;SDS011;65482;50.240;14.302;2024-02-21T09:32:45;14.00;;;4.32;;
76593;SDS011;65482;50.240;14.302;2024-02-21T09:35:11;10.00;;;4.20;;
76593;SDS011;65482;50.240;14.302;2024-02-21T09:37:38;8.00;;;3.60;;
76593;SDS011;65482;50.240;14.302;2024-02-21T09:40:04;13.82;;;3.85;;
76593;SDS011;65482;50.240;14.302;2024-02-21T09:42:37;12.25;;;4.45;;
76593;SDS011;65482;50.240;14.302;2024-02-21T09:45:07;13.68;;;3.97;;
76593;SDS011;65482;50.240;14.302;2024-02-21T09:47:40;10.00;;;3.45;;
76593;SDS011;65482;50.240;14.302;2024-02-21T09:50:17;9.15;;;3.67;;
76593;SDS011;65482;50.240;14.302;2024-02-21T09:52:43;12.48;;;4.45;;
76593;SDS011;65482;50.240;14.302;2024-02-21T09:55:10;13.13;;;4.63;;
76593;SDS011;65482;50.240;14.302;2024-02-21T09:57:38;15.77;;;4.25;;
76593;SDS011;65482;50.240;14.302;2024-02-21T10:00:05;9.15;;;2.97;;
76593;SDS011;65482;50.240;14.302;2024-02-21T10:02:33;10.60;;;3.58;;
76593;SDS011;65482;50.240;14.302;2024-02-21T10:04:59;16.17;;;3.78;;
76593;SDS011;65482;50.240;14.302;2024-02-21T10:07:24;8.50;;;3.83;;
76593;SDS011;65482;50.240;14.302;2024-02-21T10:10:01;9.25;;;3.28;;
76593;SDS011;65482;50.240;14.302;2024-02-21T10:12:29;11.50;;;3.85;;
76593;SDS011;65482;50.240;14.302;2024-02-21T10:15:04;12.50;;;3.60;;
76593;SDS011;65482;50.240;14.302;2024-02-21T10:17:34;6.93;;;3.30;;
76593;SDS011;65482;50.240;14.302;2024-02-21T10:20:06;7.40;;;3.25;;
76593;SDS011;65482;50.240;14.302;2024-02-21T10:22:34;8.50;;;3.28;;
76593;SDS011;65482;50.240;14.302;2024-02-21T10:25:11;15.00;;;3.45;;
76593;SDS011;65482;50.240;14.302;2024-02-21T10:27:40;17.33;;;3.40;;
76593;SDS011;65482;50.240;14.302;2024-02-21T10:30:13;7.22;;;2.55;;
76593;SDS011;65482;50.240;14.302;2024-02-21T10:32:55;9.90;;;3.20;;
76593;SDS011;65482;50.240;14.302;2024-02-21T10:35:31;9.77;;;3.70;;
76593;SDS011;65482;50.240;14.302;2024-02-21T10:37:57;11.82;;;3.40;;
76593;SDS011;65482;50.240;14.302;2024-02-21T10:40:27;19.10;;;3.95;;
76593;SDS011;65482;50.240;14.302;2024-02-21T10:42:57;13.85;;;3.35;;
76593;SDS011;65482;50.240;14.302;2024-02-21T10:45:30;7.13;;;2.90;;
76593;SDS011;65482;50.240;14.302;2024-02-21T10:48:15;9.43;;;3.20;;
76593;SDS011;65482;50.240;14.302;2024-02-21T10:50:47;13.57;;;3.15;;
76593;SDS011;65482;50.240;14.302;2024-02-21T10:56:21;9.50;;;3.00;;
76593;SDS011;65482;50.240;14.302;2024-02-21T10:58:51;9.45;;;3.75;;
76593;SDS011;65482;50.240;14.302;2024-02-21T11:01:18;10.68;;;3.50;;
76593;SDS011;65482;50.240;14.302;2024-02-21T11:03:44;9.43;;;3.20;;
76593;SDS011;65482;50.240;14.302;2024-02-21T11:06:13;9.60;;;3.10;;
76593;SDS011;65482;50.240;14.302;2024-02-21T11:08:40;6.30;;;3.25;;
76593;SDS011;65482;50.240;14.302;2024-02-21T11:11:06;8.32;;;2.95;;
76593;SDS011;65482;50.240;14.302;2024-02-21T11:13:35;9.90;;;3.47;;
76593;SDS011;65482;50.240;14.302;2024-02-21T11:16:08;9.52;;;3.70;;
76593;SDS011;65482;50.240;14.302;2024-02-21T11:18:35;11.30;;;3.17;;
76593;SDS011;65482;50.240;14.302;2024-02-21T11:21:01;9.20;;;3.45;;
76593;SDS011;65482;50.240;14.302;2024-02-21T11:23:28;9.02;;;3.60;;
76593;SDS011;65482;50.240;14.302;2024-02-21T11:26:39;12.52;;;3.25;;
76593;SDS011;65482;50.240;14.302;2024-02-21T11:28:55;9.40;;;3.00;;
76593;SDS011;65482;50.240;14.302;2024-02-21T11:31:22;8.25;;;2.80;;
76593;SDS011;65482;50.240;14.302;2024-02-21T11:33:47;8.18;;;3.03;;
76593;SDS011;65482;50.240;14.302;2024-02-21T11:36:23;7.57;;;2.80;;
76593;SDS011;65482;50.240;14.302;2024-02-21T11:38:50;5.05;;;2.53;;
76593;SDS011;65482;50.240;14.302;2024-02-21T11:41:16;11.05;;;2.80;;
76593;SDS011;65482;50.240;14.302;2024-02-21T11:43:42;13.82;;;2.90;;
76593;SDS011;65482;50.240;14.302;2024-02-21T11:46:08;5.88;;;2.40;;
76593;SDS011;65482;50.240;14.302;2024-02-21T11:48:34;5.72;;;2.03;;
76593;SDS011;65482;50.240;14.302;2024-02-21T11:51:00;10.43;;;3.28;;
76593;SDS011;65482;50.240;14.302;2024-02-21T11:53:26;6.68;;;2.50;;
76593;SDS011;65482;50.240;14.302;2024-02-21T11:55:56;6.78;;;2.95;;
76593;SDS011;65482;50.240;14.302;2024-02-21T11:58:22;6.80;;;2.30;;
76593;SDS011;65482;50.240;14.302;2024-02-21T12:00:48;7.93;;;2.65;;
76593;SDS011;65482;50.240;14.302;2024-02-21T12:03:14;9.63;;;2.67;;
76593;SDS011;65482;50.240;14.302;2024-02-21T12:05:41;7.68;;;2.33;;
76593;SDS011;65482;50.240;14.302;2024-02-21T12:08:07;8.60;;;2.35;;
76593;SDS011;65482;50.240;14.302;2024-02-21T12:10:34;10.80;;;2.80;;
76593;SDS011;65482;50.240;14.302;2024-02-21T12:13:10;6.95;;;2.38;;
76593;SDS011;65482;50.240;14.302;2024-02-21T12:15:38;5.22;;;2.22;;
76593;SDS011;65482;50.240;14.302;2024-02-21T12:18:05;5.47;;;2.00;;
76593;SDS011;65482;50.240;14.302;2024-02-21T12:20:31;10.98;;;2.22;;
76593;SDS011;65482;50.240;14.302;2024-02-21T12:22:59;8.70;;;2.53;;
76593;SDS011;65482;50.240;14.302;2024-02-21T12:25:26;5.55;;;2.10;;
76593;SDS011;65482;50.240;14.302;2024-02-21T12:27:52;11.82;;;2.45;;
76593;SDS011;65482;50.240;14.302;2024-02-21T12:30:18;6.40;;;2.35;;
76593;SDS011;65482;50.240;14.302;2024-02-21T12:32:44;8.77;;;2.38;;
76593;SDS011;65482;50.240;14.302;2024-02-21T12:35:11;5.05;;;2.17;;
76593;SDS011;65482;50.240;14.302;2024-02-21T12:37:37;5.45;;;2.30;;
76593;SDS011;65482;50.240;14.302;2024-02-21T12:40:04;8.38;;;2.15;;
76593;SDS011;65482;50.240;14.302;2024-02-21T12:42:32;5.80;;;2.35;;
76593;SDS011;65482;50.240;14.302;2024-02-21T12:44:59;7.70;;;2.40;;
76593;SDS011;65482;50.240;14.302;2024-02-21T12:47:25;5.85;;;2.10;;
76593;SDS011;65482;50.240;14.302;2024-02-21T12:49:52;9.68;;;2.00;;
76593;SDS011;65482;50.240;14.302;2024-02-21T12:52:18;18.17;;;2.80;;
76593;SDS011;65482;50.240;14.302;2024-02-21T12:54:44;6.50;;;2.00;;
76593;SDS011;65482;50.240;14.302;2024-02-21T12:57:09;6.20;;;2.38;;
76593;SDS011;65482;50.240;14.302;2024-02-21T12:59:35;5.50;;;1.80;;
76593;SDS011;65482;50.240;14.302;2024-02-21T13:02:01;7.20;;;2.25;;
76593;SDS011;65482;50.240;14.302;2024-02-21T13:04:27;4.60;;;2.13;;
76593;SDS011;65482;50.240;14.302;2024-02-21T13:06:52;9.82;;;2.10;;
76593;SDS011;65482;50.240;14.302;2024-02-21T13:09:18;3.33;;;1.77;;
76593;SDS011;65482;50.240;14.302;2024-02-21T13:11:45;7.40;;;1.95;;
76593;SDS011;65482;50.240;14.302;2024-02-21T13:14:11;4.10;;;1.60;;
76593;SDS011;65482;50.240;14.302;2024-02-21T13:16:37;5.47;;;2.15;;
76593;SDS011;65482;50.240;14.302;2024-02-21T13:19:06;5.78;;;2.70;;
76593;SDS011;65482;50.240;14.302;2024-02-21T13:21:33;5.60;;;1.77;;
76593;SDS011;65482;50.240;14.302;2024-02-21T13:23:59;4.55;;;1.90;;
76593;SDS011;65482;50.240;14.302;2024-02-21T13:26:25;4.50;;;2.13;;
76593;SDS011;65482;50.240;14.302;2024-02-21T13:28:51;5.25;;;1.70;;
76593;SDS011;65482;50.240;14.302;2024-02-21T13:31:16;5.30;;;2.08;;
76593;SDS011;65482;50.240;14.302;2024-02-21T13:33:42;6.25;;;1.80;;
76593;SDS011;65482;50.240;14.302;2024-02-21T13:36:09;7.07;;;1.90;;
76593;SDS011;65482;50.240;14.302;2024-02-21T13:38:35;6.50;;;2.08;;
76593;SDS011;65482;50.240;14.302;2024-02-21T13:41:01;23.63;;;2.85;;
76593;SDS011;65482;50.240;14.302;2024-02-21T13:43:26;24.73;;;4.07;;
76593;SDS011;65482;50.240;14.302;2024-02-21T13:45:56;4.95;;;1.80;;
76593;SDS011;65482;50.240;14.302;2024-02-21T13:48:23;3.40;;;1.73;;
76593;SDS011;65482;50.240;14.302;2024-02-21T13:50:48;7.15;;;2.00;;
76593;SDS011;65482;50.240;14.302;2024-02-21T13:53:14;7.88;;;2.20;;
76593;SDS011;65482;50.240;14.302;2024-02-21T13:55:39;5.82;;;2.10;;
76593;SDS011;65482;50.240;14.302;2024-02-21T13:58:06;6.72;;;2.00;;
76593;SDS011;65482;50.240;14.302;2024-02-21T14:00:33;5.70;;;2.08;;
76593;SDS011;65482;50.240;14.302;2024-02-21T14:03:01;4.93;;;2.13;;
76593;SDS011;65482;50.240;14.302;2024-02-21T14:05:27;4.57;;;1.83;;
76593;SDS011;65482;50.240;14.302;2024-02-21T14:07:53;6.60;;;1.77;;
76593;SDS011;65482;50.240;14.302;2024-02-21T14:10:20;5.65;;;1.85;;
76593;SDS011;65482;50.240;14.302;2024-02-21T14:12:46;7.32;;;2.40;;
76593;SDS011;65482;50.240;14.302;2024-02-21T14:15:13;6.03;;;2.25;;
76593;SDS011;65482;50.240;14.302;2024-02-21T14:17:39;4.07;;;1.85;;
76593;SDS011;65482;50.240;14.302;2024-02-21T14:20:05;6.47;;;1.70;;
76593;SDS011;65482;50.240;14.302;2024-02-21T14:22:33;4.88;;;2.03;;
76593;SDS011;65482;50.240;14.302;2024-02-21T14:24:59;4.50;;;2.03;;
76593;SDS011;65482;50.240;14.302;2024-02-21T14:27:25;7.28;;;2.22;;
76593;SDS011;65482;50.240;14.302;2024-02-21T14:29:51;7.82;;;2.25;;